createdAt,value
2023-02-11T00:00:04.202Z,101953.91
2023-02-11T00:05:12.352Z,101947.23
2023-02-11T00:10:19.761Z,101963.78
2023-02-11T00:15:27.446Z,101963.30
2023-02-11T00:20:34.501Z,101966.52
2023-02-11T00:25:44.005Z,101962.16
2023-02-11T00:30:58.713Z,101947.89
2023-02-11T00:36:09.399Z,101935.84
2023-02-11T00:41:17.857Z,101903.14
2023-02-11T00:46:25.516Z,101875.05
2023-02-11T00:51:32.682Z,101872.15
2023-02-11T00:56:39.887Z,101867.02
2023-02-11T01:01:47.155Z,101877.77
2023-02-11T01:06:54.372Z,101878.70
2023-02-11T01:12:01.701Z,101840.04
2023-02-11T01:17:09.108Z,101819.85
2023-02-11T01:22:16.251Z,101809.88
2023-02-11T01:27:23.747Z,101802.59
2023-02-11T01:32:30.874Z,101796.10
2023-02-11T01:37:38.198Z,101792.59
2023-02-11T01:42:48.375Z,101789.58
2023-02-11T01:47:57.452Z,101783.05
2023-02-11T01:53:19.180Z,101764.09
2023-02-11T01:58:27.091Z,101758.96
2023-02-11T02:03:39.075Z,101747.52
2023-02-11T02:08:52.700Z,101744.69
2023-02-11T02:13:59.882Z,101743.25
2023-02-11T02:19:35.248Z,101729.52
2023-02-11T02:24:57.987Z,101721.66
2023-02-11T02:30:27.767Z,101710.44
2023-02-11T02:35:44.754Z,101691.67
2023-02-11T02:40:55.927Z,101687.88
2023-02-11T02:46:16.016Z,101674.36
2023-02-11T02:51:48.638Z,101674.13
2023-02-11T02:57:01.216Z,101671.36
2023-02-11T03:02:16.552Z,101665.68
2023-02-11T03:07:33.685Z,101654.41
2023-02-11T03:12:43.565Z,101650.29
2023-02-11T03:17:53.644Z,101641.96
2023-02-11T03:23:12.930Z,101620.98
2023-02-11T03:28:31.174Z,101611.36
2023-02-11T03:33:38.935Z,101607.23
2023-02-11T03:38:51.869Z,101605.13
2023-02-11T03:44:00.858Z,101600.27
2023-02-11T03:49:10.999Z,101590.52
2023-02-11T03:54:21.561Z,101578.23
2023-02-11T03:59:28.857Z,101562.13
2023-02-11T04:04:36.019Z,101556.19
2023-02-11T04:09:43.154Z,101549.02
2023-02-11T04:14:50.375Z,101546.58
2023-02-11T04:19:57.462Z,101538.77
2023-02-11T04:25:05.149Z,101532.22
2023-02-11T04:30:15.481Z,101529.61
2023-02-11T04:35:22.699Z,101527.40
2023-02-11T04:40:29.908Z,101524.48
2023-02-11T04:45:37.555Z,101531.38
2023-02-11T04:50:44.759Z,101531.42
2023-02-11T04:55:53.199Z,101531.67
2023-02-11T05:01:09.062Z,101521.05
2023-02-11T05:06:16.614Z,101512.80
2023-02-11T05:11:25.952Z,101498.29
2023-02-11T05:16:33.260Z,101487.89
2023-02-11T05:21:50.322Z,101475.40
2023-02-11T05:27:04.560Z,101463.00
2023-02-11T05:32:12.331Z,101449.94
2023-02-11T05:37:20.164Z,101438.05
2023-02-11T05:42:27.469Z,101444.05
2023-02-11T05:47:34.761Z,101432.84
2023-02-11T05:52:41.855Z,101421.81
2023-02-11T05:57:49.193Z,101431.62
2023-02-11T06:02:56.407Z,101427.08
2023-02-11T06:08:03.646Z,101419.93
2023-02-11T06:13:10.837Z,101421.83
2023-02-11T06:18:18.049Z,101421.73
2023-02-11T06:23:25.169Z,101427.03
2023-02-11T06:28:40.004Z,101418.52
2023-02-11T06:33:57.878Z,101396.41
2023-02-11T06:39:05.200Z,101383.02
2023-02-11T06:44:12.367Z,101380.91
2023-02-11T06:49:19.616Z,101378.19
2023-02-11T06:54:26.780Z,101385.80
2023-02-11T06:59:33.974Z,101380.56
2023-02-11T07:04:41.134Z,101384.64
2023-02-11T07:09:48.334Z,101375.04
2023-02-11T07:14:57.128Z,101367.27
2023-02-11T07:20:04.824Z,101366.17
2023-02-11T07:25:12.168Z,101363.23
2023-02-11T07:30:19.622Z,101354.63
2023-02-11T07:35:26.835Z,101341.89
2023-02-11T07:40:34.031Z,101327.08
2023-02-11T07:45:42.685Z,101330.90
2023-02-11T07:50:50.638Z,101335.84
2023-02-11T07:55:57.785Z,101327.18
2023-02-11T08:01:06.051Z,101320.42
2023-02-11T08:06:18.233Z,101316.42
2023-02-11T08:11:28.170Z,101313.80
2023-02-11T08:16:38.893Z,101302.63
2023-02-11T08:21:47.230Z,101308.41
2023-02-11T08:26:54.545Z,101311.83
2023-02-11T08:32:01.683Z,101307.30
2023-02-11T08:37:09.211Z,101317.71
2023-02-11T08:42:16.868Z,101299.00
2023-02-11T08:47:24.050Z,101272.70
2023-02-11T08:52:31.276Z,101295.23
2023-02-11T08:57:38.475Z,101318.11
2023-02-11T09:02:45.554Z,101305.05
2023-02-11T09:07:52.666Z,101291.03
2023-02-11T09:12:59.818Z,101294.14
2023-02-11T09:18:07.609Z,101295.39
2023-02-11T09:23:16.465Z,101279.14
2023-02-11T09:28:25.659Z,101282.29
2023-02-11T09:33:32.955Z,101284.05
2023-02-11T09:38:40.160Z,101262.73
2023-02-11T09:43:49.524Z,101225.70
2023-02-11T09:48:57.906Z,101212.92
2023-02-11T09:54:13.304Z,101200.23
2023-02-11T09:59:20.539Z,101207.52
2023-02-11T10:04:45.959Z,101189.59
2023-02-11T10:10:15.604Z,101201.54
2023-02-11T10:15:29.372Z,101223.98
2023-02-11T10:20:47.847Z,101213.45
2023-02-11T10:25:56.504Z,101212.05
2023-02-11T10:31:03.007Z,101224.02
2023-02-11T10:36:14.918Z,101237.59
2023-02-11T10:41:27.664Z,101249.63
2023-02-11T10:46:40.332Z,101246.98
2023-02-11T10:51:47.658Z,101231.95
2023-02-11T10:57:02.034Z,101237.12
2023-02-11T11:02:24.815Z,101250.11
2023-02-11T11:07:35.391Z,101245.92
2023-02-11T11:12:51.056Z,101237.58
2023-02-11T11:23:29.745Z,101231.86
2023-02-11T11:28:40.940Z,101239.20
2023-02-11T11:33:49.532Z,101241.81
2023-02-11T11:39:00.098Z,101250.54
2023-02-11T11:44:25.617Z,101251.39
2023-02-11T11:49:37.724Z,101251.50
2023-02-11T11:54:49.025Z,101256.48
2023-02-11T11:59:56.606Z,101261.90
2023-02-11T12:05:13.046Z,101254.76
2023-02-11T12:10:47.705Z,101257.29
2023-02-11T12:16:10.043Z,101265.19
2023-02-11T12:21:30.668Z,101261.86
2023-02-11T12:26:45.793Z,101268.63
2023-02-11T12:32:02.867Z,101269.39
2023-02-11T12:37:20.329Z,101279.20
2023-02-11T12:43:04.400Z,101289.66
2023-02-11T12:48:35.714Z,101293.50
2023-02-11T12:54:01.402Z,101287.61
2023-02-11T12:59:14.830Z,101292.73
2023-02-11T13:04:27.228Z,101297.42
2023-02-11T13:09:42.288Z,101290.23
2023-02-11T13:14:53.848Z,101290.13
2023-02-11T13:20:09.337Z,101303.11
2023-02-11T13:25:30.823Z,101314.43
2023-02-11T13:30:47.140Z,101320.20
2023-02-11T13:36:18.504Z,101316.15
2023-02-11T13:41:30.854Z,101323.92
2023-02-11T13:46:57.382Z,101335.71
2023-02-11T13:52:06.834Z,101350.31
2023-02-11T13:57:30.658Z,101353.52
2023-02-11T14:02:55.834Z,101359.65
2023-02-11T14:08:37.682Z,101369.80
2023-02-11T14:14:05.029Z,101379.99
2023-02-11T14:19:12.446Z,101384.70
2023-02-11T14:24:48.241Z,101395.98
2023-02-11T14:30:18.323Z,101413.42
2023-02-11T14:35:33.513Z,101426.65
2023-02-11T14:40:47.874Z,101430.77
2023-02-11T14:45:57.731Z,101437.56
2023-02-11T14:51:08.231Z,101440.80
2023-02-11T14:56:22.892Z,101445.61
2023-02-11T15:01:34.165Z,101445.89
2023-02-11T15:06:44.062Z,101449.45
2023-02-11T15:11:52.820Z,101456.84
2023-02-11T15:17:02.730Z,101465.24
2023-02-11T15:22:20.263Z,101474.85
2023-02-11T15:27:27.589Z,101487.59
2023-02-11T15:32:36.823Z,101497.70
2023-02-11T15:37:44.965Z,101506.92
2023-02-11T15:42:58.819Z,101513.17
2023-02-11T15:48:14.560Z,101514.11
2023-02-11T15:53:28.600Z,101525.77
2023-02-11T15:58:42.048Z,101537.87
2023-02-11T16:03:52.912Z,101552.38
2023-02-11T16:09:06.200Z,101560.08
2023-02-11T16:14:29.598Z,101573.39
2023-02-11T16:19:44.125Z,101585.44
2023-02-11T16:24:56.740Z,101597.95
2023-02-11T16:30:05.779Z,101601.24
2023-02-11T16:35:15.506Z,101610.59
2023-02-11T16:40:23.853Z,101618.58
2023-02-11T16:45:31.872Z,101620.94
2023-02-11T16:50:37.492Z,101622.50
2023-02-11T16:55:44.600Z,101629.41
2023-02-11T17:00:52.207Z,101637.54
2023-02-11T17:06:03.123Z,101648.99
2023-02-11T17:11:10.470Z,101658.27
2023-02-11T17:16:22.920Z,101668.33
2023-02-11T17:21:31.636Z,101680.42
2023-02-11T17:26:39.514Z,101691.05
2023-02-11T17:31:49.184Z,101698.41
2023-02-11T17:36:58.031Z,101704.46
2023-02-11T17:42:06.234Z,101721.06
2023-02-11T17:47:13.528Z,101736.45
2023-02-11T17:52:21.717Z,101753.46
2023-02-11T17:57:28.937Z,101764.20
2023-02-11T18:02:36.145Z,101775.67
2023-02-11T18:07:43.250Z,101776.66
2023-02-11T18:12:50.477Z,101774.70
2023-02-11T18:17:58.004Z,101785.43
2023-02-11T18:23:05.193Z,101793.61
2023-02-11T18:28:12.417Z,101802.36
2023-02-11T18:33:20.319Z,101810.30
2023-02-11T18:38:27.676Z,101814.22
2023-02-11T18:43:35.394Z,101817.83
2023-02-11T18:48:44.907Z,101832.48
2023-02-11T18:53:52.172Z,101837.33
2023-02-11T18:59:01.559Z,101842.08
2023-02-11T19:04:12.339Z,101853.77
2023-02-11T19:09:21.922Z,101860.52
2023-02-11T19:14:31.628Z,101861.89
2023-02-11T19:19:39.270Z,101877.26
2023-02-11T19:24:46.461Z,101884.93
2023-02-11T19:29:53.686Z,101887.05
2023-02-11T19:35:00.824Z,101895.96
2023-02-11T19:40:10.046Z,101909.17
2023-02-11T19:45:17.614Z,101923.05
2023-02-11T19:50:25.419Z,101940.92
2023-02-11T19:55:35.633Z,101950.08
2023-02-11T20:00:43.939Z,101962.56
2023-02-11T20:05:51.522Z,101980.39
2023-02-11T20:11:05.267Z,101995.96
2023-02-11T20:16:16.888Z,102008.59
2023-02-11T20:21:26.497Z,102028.19
2023-02-11T20:26:35.504Z,102039.49
2023-02-11T20:31:44.535Z,102054.73
2023-02-11T20:36:53.009Z,102065.93
2023-02-11T20:42:00.725Z,102070.66
2023-02-11T20:47:08.406Z,102087.52
2023-02-11T20:52:16.481Z,102090.80
2023-02-11T20:57:24.145Z,102102.89
2023-02-11T21:02:32.058Z,102120.97
2023-02-11T21:07:40.697Z,102136.50
2023-02-11T21:12:50.051Z,102144.58
2023-02-11T21:18:00.742Z,102167.73
2023-02-11T21:23:09.463Z,102188.91
2023-02-11T21:28:18.710Z,102203.58
2023-02-11T21:33:30.373Z,102211.63
2023-02-11T21:38:41.117Z,102220.44
2023-02-11T21:43:48.667Z,102230.52
2023-02-11T21:48:56.227Z,102245.91
2023-02-11T21:54:05.924Z,102257.73
2023-02-11T21:59:15.772Z,102261.15
2023-02-11T22:04:27.612Z,102270.79
2023-02-11T22:09:35.366Z,102283.70
2023-02-11T22:14:42.971Z,102289.38
2023-02-11T22:19:50.389Z,102298.41
2023-02-11T22:25:00.455Z,102308.20
2023-02-11T22:30:10.279Z,102301.94
2023-02-11T22:35:18.726Z,102306.64
2023-02-11T22:40:26.209Z,102314.19
2023-02-11T22:45:36.930Z,102315.84
2023-02-11T22:50:44.363Z,102326.79
2023-02-11T22:55:51.442Z,102335.55
2023-02-11T23:00:58.593Z,102339.61
2023-02-11T23:06:06.222Z,102349.42
2023-02-11T23:11:15.875Z,102361.63
2023-02-11T23:16:24.488Z,102376.58
2023-02-11T23:21:34.445Z,102372.48
2023-02-11T23:26:42.327Z,102374.52
2023-02-11T23:31:50.015Z,102374.80
2023-02-11T23:36:59.433Z,102379.64
2023-02-11T23:42:06.953Z,102390.50
2023-02-11T23:47:14.061Z,102400.63
2023-02-11T23:52:21.295Z,102415.27
2023-02-11T23:57:28.424Z,102414.36
